createdAt,value
2023-03-25T00:01:19.416Z,96894.27
2023-03-25T00:03:50.883Z,96892.84
2023-03-25T00:06:21.255Z,96885.66
2023-03-25T00:08:50.035Z,96876.19
2023-03-25T00:11:20.287Z,96872.44
2023-03-25T00:13:49.167Z,96872.16
2023-03-25T00:16:19.254Z,96872.50
2023-03-25T00:18:48.052Z,96871.00
2023-03-25T00:21:16.692Z,96866.79
2023-03-25T00:23:44.956Z,96868.41
2023-03-25T00:26:13.383Z,96866.48
2023-03-25T00:28:41.418Z,96866.54
2023-03-25T00:31:14.942Z,96863.06
2023-03-25T00:33:43.167Z,96854.70
2023-03-25T00:36:14.840Z,96848.64
2023-03-25T00:38:50.093Z,96848.08
2023-03-25T00:41:28.389Z,96843.38
2023-03-25T00:43:58.669Z,96839.83
2023-03-25T00:46:30.119Z,96836.43
2023-03-25T00:49:00.638Z,96833.01
2023-03-25T00:51:31.318Z,96828.38
2023-03-25T00:54:03.574Z,96823.02
2023-03-25T00:56:32.137Z,96819.35
2023-03-25T00:59:00.433Z,96814.70
2023-03-25T01:01:30.791Z,96815.07
2023-03-25T01:04:00.691Z,96812.42
2023-03-25T01:06:35.200Z,96814.26
2023-03-25T01:09:06.694Z,96807.66
2023-03-25T01:11:37.786Z,96800.08
2023-03-25T01:14:09.414Z,96799.42
2023-03-25T01:16:38.016Z,96793.35
2023-03-25T01:19:08.983Z,96792.94
2023-03-25T01:21:37.271Z,96787.66
2023-03-25T01:24:07.896Z,96782.23
2023-03-25T01:26:38.146Z,96783.81
2023-03-25T01:29:07.105Z,96782.27
2023-03-25T01:31:35.289Z,96781.33
2023-03-25T01:34:03.971Z,96777.75
2023-03-25T01:36:32.008Z,96775.97
2023-03-25T01:39:01.555Z,96766.70
2023-03-25T01:41:39.130Z,96763.79
2023-03-25T01:44:15.195Z,96761.35
2023-03-25T01:46:45.265Z,96764.02
2023-03-25T01:49:21.645Z,96762.77
2023-03-25T01:51:53.558Z,96763.10
2023-03-25T01:54:22.255Z,96760.83
2023-03-25T01:56:52.620Z,96758.55
2023-03-25T01:59:24.992Z,96759.40
2023-03-25T02:01:56.645Z,96759.73
2023-03-25T02:04:45.639Z,96758.08
2023-03-25T02:07:16.844Z,96754.29
2023-03-25T02:09:45.302Z,96758.91
2023-03-25T02:12:13.751Z,96761.14
2023-03-25T02:14:41.926Z,96761.38
2023-03-25T02:17:49.909Z,96760.70
2023-03-25T02:20:42.193Z,96759.69
2023-03-25T02:23:31.550Z,96757.90
2023-03-25T02:26:36.653Z,96759.81
2023-03-25T02:29:34.167Z,96761.15
2023-03-25T02:32:27.038Z,96757.23
2023-03-25T02:35:13.184Z,96751.48
2023-03-25T02:38:07.575Z,96749.29
2023-03-25T02:40:56.222Z,96738.89
2023-03-25T02:43:32.579Z,96740.48
2023-03-25T02:46:08.492Z,96735.48
2023-03-25T02:49:03.180Z,96735.15
2023-03-25T02:51:42.752Z,96733.67
2023-03-25T02:54:13.773Z,96727.91
2023-03-25T02:56:47.508Z,96724.73
2023-03-25T02:59:18.434Z,96726.11
2023-03-25T03:01:51.032Z,96730.58
2023-03-25T03:04:20.823Z,96729.17
2023-03-25T03:06:49.494Z,96726.70
2023-03-25T03:09:23.116Z,96725.02
2023-03-25T03:12:29.487Z,96721.04
2023-03-25T03:15:18.085Z,96720.74
2023-03-25T03:17:56.303Z,96720.42
2023-03-25T03:20:55.833Z,96725.48
2023-03-25T03:23:46.290Z,96725.38
2023-03-25T03:26:27.317Z,96721.33
2023-03-25T03:29:08.525Z,96719.29
2023-03-25T03:32:05.888Z,96718.90
2023-03-25T03:34:43.309Z,96709.94
2023-03-25T03:37:18.858Z,96709.02
2023-03-25T03:39:49.347Z,96711.39
2023-03-25T03:42:41.928Z,96703.41
2023-03-25T03:45:19.195Z,96706.20
2023-03-25T03:47:51.597Z,96698.07
2023-03-25T03:50:24.477Z,96696.86
2023-03-25T03:53:03.137Z,96694.01
2023-03-25T03:55:41.972Z,96691.63
2023-03-25T03:58:16.384Z,96695.55
2023-03-25T04:00:50.673Z,96696.33
2023-03-25T04:03:28.540Z,96694.51
2023-03-25T04:06:10.377Z,96701.98
2023-03-25T04:08:51.967Z,96700.16
2023-03-25T04:11:24.753Z,96700.58
2023-03-25T04:13:57.682Z,96704.71
2023-03-25T04:16:26.092Z,96696.59
2023-03-25T04:18:55.453Z,96705.13
2023-03-25T04:21:24.259Z,96706.48
2023-03-25T04:23:52.316Z,96703.54
2023-03-25T04:26:21.845Z,96708.11
2023-03-25T04:28:49.901Z,96709.24
2023-03-25T04:31:18.092Z,96712.70
2023-03-25T04:33:48.697Z,96713.27
2023-03-25T04:36:16.931Z,96706.94
2023-03-25T04:38:48.095Z,96707.46
2023-03-25T04:41:17.569Z,96708.52
2023-03-25T04:43:45.819Z,96707.71
2023-03-25T04:46:16.417Z,96700.29
2023-03-25T04:48:45.653Z,96694.92
2023-03-25T04:51:15.601Z,96695.25
2023-03-25T04:53:43.991Z,96689.13
2023-03-25T04:56:17.215Z,96691.18
2023-03-25T04:58:46.037Z,96695.11
2023-03-25T05:01:32.483Z,96702.14
2023-03-25T05:04:05.948Z,96691.42
2023-03-25T05:06:39.948Z,96693.88
2023-03-25T05:09:11.921Z,96700.88
2023-03-25T05:11:41.908Z,96698.19
2023-03-25T05:14:11.695Z,96697.67
2023-03-25T05:16:40.772Z,96699.98
2023-03-25T05:19:09.794Z,96695.17
2023-03-25T05:21:39.343Z,96697.33
2023-03-25T05:24:10.981Z,96698.02
2023-03-25T05:26:41.069Z,96695.86
2023-03-25T05:29:14.904Z,96690.92
2023-03-25T05:31:48.959Z,96695.14
2023-03-25T05:34:17.563Z,96693.55
2023-03-25T05:36:46.130Z,96695.90
2023-03-25T05:39:14.576Z,96698.19
2023-03-25T05:41:45.697Z,96695.10
2023-03-25T05:44:18.787Z,96687.74
2023-03-25T05:46:47.054Z,96681.38
2023-03-25T05:49:15.257Z,96696.09
2023-03-25T05:51:45.329Z,96697.13
2023-03-25T05:54:13.474Z,96698.66
2023-03-25T05:56:43.761Z,96696.24
2023-03-25T05:59:11.970Z,96693.66
2023-03-25T06:01:43.270Z,96695.25
2023-03-25T06:04:14.752Z,96695.60
2023-03-25T06:06:42.787Z,96692.05
2023-03-25T06:09:11.939Z,96693.66
2023-03-25T06:11:40.114Z,96682.25
2023-03-25T06:14:08.304Z,96679.78
2023-03-25T06:16:37.126Z,96691.43
2023-03-25T06:19:05.237Z,96686.00
2023-03-25T06:21:34.594Z,96682.58
2023-03-25T06:24:03.120Z,96687.73
2023-03-25T06:26:32.893Z,96688.23
2023-03-25T06:29:03.826Z,96685.88
2023-03-25T06:31:34.407Z,96693.76
2023-03-25T06:34:03.028Z,96701.52
2023-03-25T06:36:31.717Z,96704.57
2023-03-25T06:39:00.075Z,96706.70
2023-03-25T06:41:29.326Z,96712.89
2023-03-25T06:44:09.913Z,96720.39
2023-03-25T06:46:47.015Z,96711.80
2023-03-25T06:49:18.252Z,96707.92
2023-03-25T06:51:47.000Z,96708.32
2023-03-25T06:54:15.578Z,96708.54
2023-03-25T06:56:45.213Z,96713.71
2023-03-25T06:59:13.385Z,96716.24
2023-03-25T07:01:43.384Z,96710.92
2023-03-25T07:04:11.433Z,96710.93
2023-03-25T07:06:39.531Z,96715.66
2023-03-25T07:09:08.163Z,96721.09
2023-03-25T07:11:36.324Z,96720.23
2023-03-25T07:14:07.499Z,96718.67
2023-03-25T07:16:35.988Z,96724.27
2023-03-25T07:19:04.245Z,96724.75
2023-03-25T07:21:32.474Z,96722.92
2023-03-25T07:24:04.025Z,96717.02
2023-03-25T07:26:32.166Z,96716.62
2023-03-25T07:29:01.451Z,96713.92
2023-03-25T07:31:31.460Z,96705.83
2023-03-25T07:33:59.998Z,96704.66
2023-03-25T07:36:28.675Z,96701.19
2023-03-25T07:38:59.201Z,96705.02
2023-03-25T07:41:27.288Z,96714.48
2023-03-25T07:44:12.573Z,96711.98
2023-03-25T07:46:40.806Z,96705.02
2023-03-25T07:49:08.924Z,96704.22
2023-03-25T07:51:36.981Z,96700.42
2023-03-25T07:54:06.400Z,96698.20
2023-03-25T07:56:34.903Z,96702.69
2023-03-25T07:59:05.093Z,96705.36
2023-03-25T08:01:34.240Z,96701.16
2023-03-25T08:04:02.532Z,96700.28
2023-03-25T08:06:31.399Z,96704.48
2023-03-25T08:09:00.701Z,96708.70
2023-03-25T08:11:28.984Z,96710.23
2023-03-25T08:13:57.859Z,96707.61
2023-03-25T08:16:27.927Z,96712.65
2023-03-25T08:18:56.409Z,96713.04
2023-03-25T08:21:28.041Z,96714.85
2023-03-25T08:24:03.270Z,96713.05
2023-03-25T08:26:33.983Z,96718.55
2023-03-25T08:29:02.844Z,96719.91
2023-03-25T08:31:33.353Z,96710.92
2023-03-25T08:34:02.762Z,96711.98
2023-03-25T08:36:33.564Z,96713.36
2023-03-25T08:39:08.301Z,96718.84
2023-03-25T08:41:38.685Z,96719.35
2023-03-25T08:44:10.497Z,96723.45
2023-03-25T08:46:38.628Z,96723.18
2023-03-25T08:49:08.748Z,96721.36
2023-03-25T08:51:36.880Z,96719.30
2023-03-25T08:54:05.395Z,96713.27
2023-03-25T08:56:35.227Z,96708.05
2023-03-25T08:59:05.721Z,96706.01
2023-03-25T09:01:34.631Z,96709.82
2023-03-25T09:04:06.672Z,96713.11
2023-03-25T09:06:47.819Z,96713.40
2023-03-25T09:09:24.754Z,96715.95
2023-03-25T09:11:55.427Z,96711.94
2023-03-25T09:14:23.693Z,96712.35
2023-03-25T09:16:52.356Z,96701.91
2023-03-25T09:19:21.922Z,96701.27
2023-03-25T09:21:50.441Z,96701.70
2023-03-25T09:24:18.600Z,96706.20
2023-03-25T09:26:46.763Z,96708.02
2023-03-25T09:29:15.136Z,96708.33
2023-03-25T09:31:43.403Z,96711.76
2023-03-25T09:34:14.646Z,96709.01
2023-03-25T09:36:48.041Z,96706.58
2023-03-25T09:39:19.570Z,96707.64
2023-03-25T09:42:11.870Z,96699.44
2023-03-25T09:45:11.956Z,96702.73
2023-03-25T09:48:06.194Z,96691.00
2023-03-25T09:50:37.028Z,96685.17
2023-03-25T09:53:31.107Z,96679.16
2023-03-25T09:56:00.661Z,96680.50
2023-03-25T09:58:42.192Z,96682.90
2023-03-25T10:01:33.242Z,96682.97
2023-03-25T10:04:23.310Z,96683.57
2023-03-25T10:07:06.289Z,96690.08
2023-03-25T10:09:57.572Z,96690.91
2023-03-25T10:12:37.485Z,96687.77
2023-03-25T10:15:24.990Z,96687.75
2023-03-25T10:18:21.185Z,96683.34
2023-03-25T10:21:21.686Z,96680.65
2023-03-25T10:24:05.639Z,96682.81
2023-03-25T10:26:40.971Z,96683.41
2023-03-25T10:29:33.501Z,96678.61
2023-03-25T10:32:07.789Z,96674.25
2023-03-25T10:34:46.842Z,96676.75
2023-03-25T10:37:21.996Z,96677.21
2023-03-25T10:39:51.767Z,96676.55
2023-03-25T10:42:24.942Z,96679.95
2023-03-25T10:44:54.601Z,96678.45
2023-03-25T10:47:30.845Z,96674.43
2023-03-25T10:49:59.864Z,96672.59
2023-03-25T10:52:29.072Z,96668.12
2023-03-25T10:55:07.667Z,96663.63
2023-03-25T10:57:37.271Z,96657.62
2023-03-25T11:00:20.576Z,96654.67
2023-03-25T11:02:49.199Z,96653.02
2023-03-25T11:05:21.517Z,96650.29
2023-03-25T11:08:23.684Z,96646.92
2023-03-25T11:10:58.671Z,96647.08
2023-03-25T11:13:31.387Z,96646.83
2023-03-25T11:16:03.142Z,96643.95
2023-03-25T11:18:40.797Z,96644.25
2023-03-25T11:21:13.874Z,96637.91
2023-03-25T11:23:51.601Z,96630.23
2023-03-25T11:26:19.764Z,96628.90
2023-03-25T11:28:56.076Z,96627.70
2023-03-25T11:31:28.626Z,96626.38
2023-03-25T11:34:17.598Z,96630.77
2023-03-25T11:37:02.155Z,96628.79
2023-03-25T11:39:37.077Z,96623.71
2023-03-25T11:42:37.890Z,96624.31
2023-03-25T11:45:07.102Z,96629.86
2023-03-25T11:47:38.211Z,96629.35
2023-03-25T11:50:07.519Z,96630.21
2023-03-25T11:52:43.632Z,96626.66
2023-03-25T11:55:27.822Z,96622.86
2023-03-25T11:57:58.904Z,96619.27
2023-03-25T12:00:34.201Z,96619.92
2023-03-25T12:03:14.786Z,96617.98
2023-03-25T12:05:43.305Z,96619.45
2023-03-25T12:08:18.775Z,96621.70
2023-03-25T12:11:05.084Z,96624.98
2023-03-25T12:13:45.589Z,96622.79
2023-03-25T12:16:23.926Z,96624.27
2023-03-25T12:19:01.299Z,96629.23
2023-03-25T12:22:00.977Z,96630.17
2023-03-25T12:24:58.319Z,96630.68
2023-03-25T12:27:29.511Z,96625.77
2023-03-25T12:30:10.870Z,96618.57
2023-03-25T12:32:55.810Z,96616.98
2023-03-25T12:35:47.921Z,96627.98
2023-03-25T12:38:37.283Z,96632.46
2023-03-25T12:41:21.920Z,96634.84
2023-03-25T12:43:58.958Z,96649.45
2023-03-25T12:46:37.341Z,96649.38
2023-03-25T12:49:22.335Z,96653.56
2023-03-25T12:52:26.314Z,96654.14
2023-03-25T12:55:11.546Z,96663.49
2023-03-25T12:57:56.050Z,96658.79
2023-03-25T13:00:36.916Z,96655.56
2023-03-25T13:03:13.256Z,96656.75
2023-03-25T13:06:00.238Z,96657.64
2023-03-25T13:08:37.694Z,96656.92
2023-03-25T13:11:18.756Z,96661.33
2023-03-25T13:13:50.142Z,96664.52
2023-03-25T13:16:25.543Z,96662.72
2023-03-25T13:18:56.975Z,96659.58
2023-03-25T13:21:32.235Z,96671.76
2023-03-25T13:24:27.958Z,96686.80
2023-03-25T13:26:58.016Z,96682.61
2023-03-25T13:29:39.381Z,96680.06
2023-03-25T13:32:15.323Z,96690.38
2023-03-25T13:34:50.361Z,96681.74
2023-03-25T13:37:21.997Z,96676.30
2023-03-25T13:40:13.205Z,96673.69
2023-03-25T13:42:47.473Z,96667.71
2023-03-25T13:45:20.732Z,96663.27
2023-03-25T13:48:01.396Z,96662.93
2023-03-25T13:50:31.932Z,96679.34
2023-03-25T13:53:05.283Z,96671.48
2023-03-25T13:55:46.117Z,96667.30
2023-03-25T13:58:36.415Z,96675.01
2023-03-25T14:01:48.624Z,96671.88
2023-03-25T14:04:35.120Z,96670.98
2023-03-25T14:07:21.965Z,96675.50
2023-03-25T14:10:11.774Z,96688.77
2023-03-25T14:12:51.829Z,96686.38
2023-03-25T14:15:31.934Z,96680.55
2023-03-25T14:18:02.660Z,96686.10
2023-03-25T14:20:38.108Z,96693.20
2023-03-25T14:23:14.081Z,96688.44
2023-03-25T14:25:48.429Z,96688.71
2023-03-25T14:28:32.906Z,96690.55
2023-03-25T14:31:32.078Z,96681.40
2023-03-25T14:34:00.354Z,96682.38
2023-03-25T14:36:39.576Z,96681.16
2023-03-25T14:39:13.134Z,96676.29
2023-03-25T14:42:13.493Z,96674.11
2023-03-25T14:44:49.945Z,96673.65
2023-03-25T14:47:27.948Z,96668.64
2023-03-25T14:50:05.348Z,96669.09
2023-03-25T14:52:40.664Z,96667.12
2023-03-25T14:55:20.282Z,96669.25
2023-03-25T14:57:51.395Z,96665.33
2023-03-25T15:00:27.488Z,96666.14
2023-03-25T15:03:05.293Z,96663.27
2023-03-25T15:05:36.732Z,96676.96
2023-03-25T15:08:09.614Z,96676.09
2023-03-25T15:10:45.824Z,96672.67
2023-03-25T15:13:27.497Z,96674.88
2023-03-25T15:16:01.659Z,96674.47
2023-03-25T15:18:35.782Z,96678.42
2023-03-25T15:21:09.442Z,96672.53
2023-03-25T15:23:42.925Z,96670.50
2023-03-25T15:26:18.696Z,96673.27
2023-03-25T15:29:02.124Z,96676.80
2023-03-25T15:31:42.122Z,96677.88
2023-03-25T15:34:18.440Z,96669.98
2023-03-25T15:37:05.631Z,96670.45
2023-03-25T15:39:44.935Z,96680.20
2023-03-25T15:42:38.928Z,96671.35
2023-03-25T15:45:13.901Z,96662.05
2023-03-25T15:47:42.000Z,96658.80
2023-03-25T15:50:29.684Z,96663.55
2023-03-25T15:53:25.865Z,96672.77
2023-03-25T15:56:13.698Z,96674.39
2023-03-25T15:59:16.255Z,96673.84
2023-03-25T16:01:52.029Z,96677.16
2023-03-25T16:04:33.314Z,96688.35
2023-03-25T16:07:05.541Z,96685.55
2023-03-25T16:09:41.794Z,96688.13
2023-03-25T16:12:11.072Z,96688.88
2023-03-25T16:14:44.105Z,96690.06
2023-03-25T16:17:15.214Z,96691.27
2023-03-25T16:19:49.687Z,96692.27
2023-03-25T16:22:34.622Z,96689.98
2023-03-25T16:25:06.841Z,96691.71
2023-03-25T16:27:41.846Z,96685.50
2023-03-25T16:30:25.382Z,96690.15
2023-03-25T16:32:53.797Z,96687.63
2023-03-25T16:35:26.015Z,96694.64
2023-03-25T16:37:58.500Z,96692.16
2023-03-25T16:40:31.052Z,96699.86
2023-03-25T16:43:13.900Z,96695.90
2023-03-25T16:45:44.368Z,96695.10
2023-03-25T16:48:35.607Z,96694.83
2023-03-25T16:51:14.173Z,96698.50
2023-03-25T16:53:44.095Z,96697.79
2023-03-25T16:56:15.216Z,96698.81
2023-03-25T16:59:00.252Z,96694.52
2023-03-25T17:01:33.777Z,96696.81
2023-03-25T17:04:11.712Z,96699.53
2023-03-25T17:06:43.307Z,96702.42
2023-03-25T17:09:17.979Z,96707.77
2023-03-25T17:11:48.139Z,96708.50
2023-03-25T17:14:23.984Z,96712.73
2023-03-25T17:16:54.228Z,96719.20
2023-03-25T17:19:26.168Z,96719.27
2023-03-25T17:22:16.523Z,96721.98
2023-03-25T17:24:58.037Z,96728.59
2023-03-25T17:27:44.544Z,96725.05
2023-03-25T17:30:22.172Z,96726.90
2023-03-25T17:32:51.172Z,96727.77
2023-03-25T17:35:31.725Z,96728.42
2023-03-25T17:38:00.773Z,96727.35
2023-03-25T17:40:31.270Z,96729.95
2023-03-25T17:42:59.738Z,96731.98
2023-03-25T17:45:28.004Z,96729.08
2023-03-25T17:47:56.848Z,96731.06
2023-03-25T17:50:27.665Z,96735.94
2023-03-25T17:52:55.827Z,96739.77
2023-03-25T17:55:23.965Z,96734.73
2023-03-25T17:57:52.025Z,96734.01
2023-03-25T18:00:20.790Z,96737.91
2023-03-25T18:02:49.049Z,96740.38
2023-03-25T18:05:17.601Z,96740.27
2023-03-25T18:07:45.765Z,96743.95
2023-03-25T18:10:20.401Z,96748.45
2023-03-25T18:12:48.640Z,96749.01
2023-03-25T18:15:16.938Z,96750.66
2023-03-25T18:17:45.202Z,96749.81
2023-03-25T18:20:21.845Z,96749.52
2023-03-25T18:22:53.371Z,96749.52
2023-03-25T18:25:24.376Z,96752.30
2023-03-25T18:27:54.790Z,96750.79
2023-03-25T18:30:29.784Z,96753.86
2023-03-25T18:32:58.039Z,96755.77
2023-03-25T18:35:26.404Z,96760.57
2023-03-25T18:37:54.887Z,96759.57
2023-03-25T18:40:30.501Z,96761.81
2023-03-25T18:42:58.669Z,96759.02
2023-03-25T18:45:27.474Z,96759.95
2023-03-25T18:47:57.654Z,96760.52
2023-03-25T18:50:30.558Z,96760.14
2023-03-25T18:52:59.719Z,96766.77
2023-03-25T18:55:29.910Z,96776.67
2023-03-25T18:57:58.888Z,96772.48
2023-03-25T19:00:31.168Z,96764.57
2023-03-25T19:02:59.428Z,96772.34
2023-03-25T19:05:27.976Z,96784.30
2023-03-25T19:07:56.374Z,96790.06
2023-03-25T19:10:28.144Z,96799.46
2023-03-25T19:12:56.448Z,96795.04
2023-03-25T19:15:27.900Z,96797.44
2023-03-25T19:18:02.114Z,96799.73
2023-03-25T19:20:33.704Z,96798.58
2023-03-25T19:23:05.034Z,96804.77
2023-03-25T19:25:33.508Z,96808.69
2023-03-25T19:28:01.762Z,96813.02
2023-03-25T19:30:31.720Z,96816.73
2023-03-25T19:33:02.235Z,96816.58
2023-03-25T19:35:32.494Z,96809.06
2023-03-25T19:38:03.542Z,96818.88
2023-03-25T19:40:36.688Z,96809.81
2023-03-25T19:43:06.715Z,96818.63
2023-03-25T19:45:35.679Z,96822.30
2023-03-25T19:48:04.048Z,96825.09
2023-03-25T19:50:33.672Z,96824.40
2023-03-25T19:53:06.240Z,96820.73
2023-03-25T19:55:34.509Z,96822.94
2023-03-25T19:58:02.856Z,96825.23
2023-03-25T20:00:31.941Z,96825.75
2023-03-25T20:03:01.892Z,96826.95
2023-03-25T20:05:32.172Z,96827.23
2023-03-25T20:08:00.450Z,96821.24
2023-03-25T20:10:30.460Z,96819.35
2023-03-25T20:12:59.075Z,96818.09
2023-03-25T20:15:27.277Z,96824.55
2023-03-25T20:17:56.564Z,96820.60
2023-03-25T20:20:25.853Z,96807.91
2023-03-25T20:22:54.147Z,96803.55
2023-03-25T20:25:22.480Z,96802.60
2023-03-25T20:27:51.622Z,96802.74
2023-03-25T20:30:20.363Z,96801.44
2023-03-25T20:32:49.803Z,96796.35
2023-03-25T20:35:18.889Z,96801.40
2023-03-25T20:37:49.137Z,96805.36
2023-03-25T20:40:18.431Z,96802.31
2023-03-25T20:42:47.514Z,96801.91
2023-03-25T20:45:17.933Z,96799.73
2023-03-25T20:47:46.414Z,96793.59
2023-03-25T20:50:16.705Z,96787.27
2023-03-25T20:52:45.044Z,96787.39
2023-03-25T20:55:13.884Z,96785.94
2023-03-25T20:57:42.043Z,96781.63
2023-03-25T21:00:14.842Z,96783.89
2023-03-25T21:02:45.106Z,96780.71
2023-03-25T21:05:14.221Z,96784.38
2023-03-25T21:07:42.260Z,96783.02
2023-03-25T21:10:11.093Z,96785.39
2023-03-25T21:12:44.028Z,96788.95
2023-03-25T21:15:16.782Z,96785.06
2023-03-25T21:17:44.987Z,96779.16
2023-03-25T21:20:13.264Z,96776.73
2023-03-25T21:22:43.891Z,96779.55
2023-03-25T21:25:14.840Z,96781.71
2023-03-25T21:27:45.523Z,96782.17
2023-03-25T21:30:15.760Z,96783.78
2023-03-25T21:32:43.910Z,96785.48
2023-03-25T21:35:12.217Z,96781.83
2023-03-25T21:37:40.602Z,96785.29
2023-03-25T21:40:11.338Z,96784.52
2023-03-25T21:42:41.513Z,96782.34
2023-03-25T21:45:13.757Z,96779.28
2023-03-25T21:47:43.715Z,96780.08
2023-03-25T21:50:13.507Z,96781.52
2023-03-25T21:52:46.509Z,96784.71
2023-03-25T21:55:16.644Z,96781.46
2023-03-25T21:57:45.285Z,96781.91
2023-03-25T22:00:17.635Z,96789.73
2023-03-25T22:02:47.478Z,96796.79
2023-03-25T22:05:16.964Z,96796.11
2023-03-25T22:07:45.079Z,96793.52
2023-03-25T22:10:13.197Z,96797.28
2023-03-25T22:12:41.428Z,96797.70
2023-03-25T22:15:10.479Z,96798.63
2023-03-25T22:17:38.643Z,96806.84
2023-03-25T22:20:07.766Z,96815.19
2023-03-25T22:22:36.965Z,96815.95
2023-03-25T22:25:06.986Z,96825.94
2023-03-25T22:27:36.497Z,96824.52
2023-03-25T22:30:08.396Z,96830.99
2023-03-25T22:32:36.736Z,96833.73
2023-03-25T22:35:05.379Z,96827.17
2023-03-25T22:37:37.208Z,96824.21
2023-03-25T22:40:09.300Z,96830.95
2023-03-25T22:42:37.647Z,96836.56
2023-03-25T22:45:06.567Z,96832.29
2023-03-25T22:47:35.005Z,96837.37
2023-03-25T22:50:03.595Z,96838.68
2023-03-25T22:52:31.654Z,96844.36
2023-03-25T22:54:59.735Z,96845.27
2023-03-25T22:57:28.142Z,96843.59
2023-03-25T22:59:56.144Z,96840.79
2023-03-25T23:02:24.928Z,96843.13
2023-03-25T23:04:53.055Z,96839.02
2023-03-25T23:07:21.273Z,96839.95
2023-03-25T23:09:49.314Z,96842.86
2023-03-25T23:12:23.004Z,96842.73
2023-03-25T23:14:55.649Z,96838.48
2023-03-25T23:17:26.751Z,96837.76
2023-03-25T23:19:54.826Z,96833.08
2023-03-25T23:22:22.873Z,96838.02
2023-03-25T23:24:51.077Z,96834.52
2023-03-25T23:27:19.510Z,96829.81
2023-03-25T23:29:48.094Z,96833.07
2023-03-25T23:32:16.635Z,96830.91
2023-03-25T23:34:45.389Z,96823.74
2023-03-25T23:37:15.302Z,96817.95
2023-03-25T23:39:46.229Z,96818.03
2023-03-25T23:42:14.258Z,96813.48
2023-03-25T23:44:43.736Z,96811.30
2023-03-25T23:47:12.178Z,96812.38
2023-03-25T23:49:40.528Z,96813.08
2023-03-25T23:52:11.527Z,96808.34
2023-03-25T23:54:40.359Z,96810.84
2023-03-25T23:57:08.436Z,96812.68
2023-03-25T23:59:36.531Z,96816.02
